createdAt,value
2022-11-24T00:01:16.795Z,2.40
2022-11-24T00:03:52.872Z,3.23
2022-11-24T00:06:19.965Z,2.47
2022-11-24T00:08:47.266Z,3.00
2022-11-24T00:11:20.020Z,3.20
2022-11-24T00:13:47.249Z,2.90
2022-11-24T00:16:20.553Z,3.23
2022-11-24T00:18:49.687Z,2.80
2022-11-24T00:21:17.913Z,3.93
2022-11-24T00:23:45.805Z,2.87
2022-11-24T00:26:21.522Z,3.03
2022-11-24T00:28:50.060Z,2.70
2022-11-24T00:31:24.640Z,2.40
2022-11-24T00:33:53.487Z,2.60
2022-11-24T00:36:22.107Z,2.50
2022-11-24T00:38:53.071Z,2.47
2022-11-24T00:41:19.991Z,3.10
2022-11-24T00:43:46.755Z,2.63
2022-11-24T00:46:13.732Z,2.40
2022-11-24T00:48:40.698Z,2.17
2022-11-24T00:51:09.819Z,3.00
2022-11-24T00:53:37.075Z,2.90
2022-11-24T00:56:04.111Z,2.30
2022-11-24T00:58:31.726Z,2.50
2022-11-24T01:01:10.883Z,2.30
2022-11-24T01:03:38.054Z,2.40
2022-11-24T01:06:11.389Z,2.73
2022-11-24T01:08:39.808Z,2.80
2022-11-24T01:11:08.591Z,2.70
2022-11-24T01:13:35.492Z,2.43
2022-11-24T01:16:02.458Z,2.50
2022-11-24T01:18:29.366Z,2.83
2022-11-24T01:20:56.076Z,2.30
2022-11-24T01:23:22.945Z,2.63
2022-11-24T01:25:49.621Z,2.40
2022-11-24T01:28:16.342Z,2.47
2022-11-24T01:30:43.170Z,2.70
2022-11-24T01:33:10.266Z,2.20
2022-11-24T01:35:36.982Z,2.53
2022-11-24T01:38:03.833Z,2.60
2022-11-24T01:40:30.567Z,3.40
2022-11-24T01:42:57.280Z,2.87
2022-11-24T01:45:32.832Z,3.37
2022-11-24T01:48:01.252Z,2.77
2022-11-24T01:50:28.436Z,2.50
2022-11-24T01:52:56.806Z,2.67
2022-11-24T01:55:31.539Z,3.00
2022-11-24T01:58:06.405Z,2.73
2022-11-24T02:00:36.354Z,3.13
2022-11-24T02:03:03.237Z,2.60
2022-11-24T02:05:58.653Z,2.90
2022-11-24T02:09:03.467Z,2.63
2022-11-24T02:11:35.913Z,3.20
2022-11-24T02:14:05.906Z,2.50
2022-11-24T02:16:35.802Z,2.70
2022-11-24T02:19:09.177Z,2.20
2022-11-24T02:21:36.024Z,2.60
2022-11-24T02:24:47.281Z,2.50
2022-11-24T02:27:14.097Z,2.30
2022-11-24T02:29:41.546Z,2.40
2022-11-24T02:32:10.797Z,2.20
2022-11-24T02:34:37.756Z,2.20
2022-11-24T02:37:04.506Z,2.63
2022-11-24T02:39:31.251Z,2.80
2022-11-24T02:42:02.979Z,2.40
2022-11-24T02:44:36.455Z,2.93
2022-11-24T02:47:09.417Z,2.13
2022-11-24T02:49:36.511Z,2.30
2022-11-24T02:52:04.044Z,2.80
2022-11-24T02:54:31.801Z,2.83
2022-11-24T02:56:58.916Z,2.23
2022-11-24T02:59:25.846Z,2.60
2022-11-24T03:01:52.867Z,2.60
2022-11-24T03:04:19.767Z,2.60
2022-11-24T03:06:46.508Z,2.70
2022-11-24T03:09:13.293Z,2.50
2022-11-24T03:11:40.117Z,2.53
2022-11-24T03:14:07.449Z,2.73
2022-11-24T03:16:34.313Z,2.53
2022-11-24T03:19:01.915Z,2.07
2022-11-24T03:21:28.824Z,2.40
2022-11-24T03:23:55.733Z,2.27
2022-11-24T03:26:23.958Z,2.57
2022-11-24T03:28:54.392Z,2.27
2022-11-24T03:31:21.503Z,2.23
2022-11-24T03:33:48.265Z,2.17
2022-11-24T03:36:15.104Z,2.10
2022-11-24T03:38:41.771Z,2.40
2022-11-24T03:41:08.691Z,2.13
2022-11-24T03:43:40.446Z,2.37
2022-11-24T03:46:10.299Z,2.27
2022-11-24T03:48:37.026Z,1.97
2022-11-24T03:51:03.951Z,2.07
2022-11-24T03:53:32.337Z,2.37
2022-11-24T03:55:59.480Z,2.40
2022-11-24T03:58:26.365Z,2.20
2022-11-24T04:00:54.365Z,1.80
2022-11-24T04:03:21.834Z,2.07
2022-11-24T04:05:48.607Z,2.33
2022-11-24T04:08:16.338Z,2.20
2022-11-24T04:10:43.474Z,2.30
2022-11-24T04:13:17.881Z,2.03
2022-11-24T04:15:45.251Z,3.00
2022-11-24T04:18:13.147Z,2.57
2022-11-24T04:20:40.764Z,2.20
2022-11-24T04:23:08.175Z,2.40
2022-11-24T04:25:35.725Z,2.03
2022-11-24T04:28:02.513Z,2.27
2022-11-24T04:30:29.684Z,2.40
2022-11-24T04:32:57.347Z,2.27
2022-11-24T04:35:24.435Z,2.07
2022-11-24T04:37:51.389Z,2.33
2022-11-24T04:40:18.513Z,2.50
2022-11-24T04:42:53.398Z,2.30
2022-11-24T04:45:20.320Z,2.50
2022-11-24T04:47:47.061Z,1.97
2022-11-24T04:50:14.028Z,2.17
2022-11-24T04:52:40.837Z,2.50
2022-11-24T04:55:08.304Z,2.70
2022-11-24T04:57:35.089Z,2.63
2022-11-24T05:00:01.856Z,2.40
2022-11-24T05:02:28.570Z,2.40
2022-11-24T05:04:55.605Z,2.33
2022-11-24T05:07:23.273Z,2.87
2022-11-24T05:10:09.122Z,2.33
2022-11-24T05:12:36.965Z,2.50
2022-11-24T05:15:05.527Z,2.53
2022-11-24T05:17:34.698Z,2.70
2022-11-24T05:20:01.442Z,2.53
2022-11-24T05:22:31.802Z,3.00
2022-11-24T05:24:58.653Z,4.10
2022-11-24T05:27:25.606Z,4.70
2022-11-24T05:29:52.534Z,5.00
2022-11-24T05:32:19.303Z,4.70
2022-11-24T05:34:46.330Z,2.87
2022-11-24T05:37:13.030Z,3.30
2022-11-24T05:39:39.754Z,3.93
2022-11-24T05:42:26.416Z,4.40
2022-11-24T05:44:54.416Z,4.53
2022-11-24T05:47:22.123Z,3.80
2022-11-24T05:49:48.944Z,4.87
2022-11-24T05:52:16.524Z,4.20
2022-11-24T05:54:43.304Z,3.80
2022-11-24T05:57:10.356Z,4.43
2022-11-24T05:59:37.076Z,3.50
2022-11-24T06:02:04.055Z,3.47
2022-11-24T06:04:31.594Z,3.73
2022-11-24T06:06:58.484Z,3.50
2022-11-24T06:09:25.257Z,3.50
2022-11-24T06:11:52.033Z,3.40
2022-11-24T06:14:18.882Z,3.50
2022-11-24T06:16:45.651Z,2.93
2022-11-24T06:19:12.715Z,3.17
2022-11-24T06:21:39.429Z,4.33
2022-11-24T06:24:06.662Z,3.73
2022-11-24T06:26:33.774Z,3.73
2022-11-24T06:29:00.581Z,3.27
2022-11-24T06:31:27.547Z,3.50
2022-11-24T06:33:54.393Z,3.50
2022-11-24T06:36:21.458Z,3.17
2022-11-24T06:38:48.342Z,3.90
2022-11-24T06:41:16.026Z,5.50
2022-11-24T06:43:43.249Z,4.97
2022-11-24T06:46:11.120Z,4.20
2022-11-24T06:48:38.217Z,4.07
2022-11-24T06:51:10.671Z,3.93
2022-11-24T06:53:38.642Z,3.27
2022-11-24T06:56:16.375Z,3.10
2022-11-24T06:58:45.803Z,2.87
2022-11-24T07:01:16.618Z,3.03
2022-11-24T07:03:43.554Z,3.00
2022-11-24T07:06:10.651Z,3.20
2022-11-24T07:08:37.517Z,2.90
2022-11-24T07:11:06.224Z,6.23
2022-11-24T07:13:33.392Z,4.27
2022-11-24T07:16:01.327Z,3.63
2022-11-24T07:18:28.097Z,3.03
2022-11-24T07:20:54.850Z,3.33
2022-11-24T07:23:21.750Z,2.93
2022-11-24T07:25:48.640Z,3.43
2022-11-24T07:28:15.376Z,3.30
2022-11-24T07:30:42.149Z,3.47
2022-11-24T07:33:08.847Z,3.13
2022-11-24T07:35:35.627Z,3.57
2022-11-24T07:38:02.345Z,4.07
2022-11-24T07:40:29.304Z,3.30
2022-11-24T07:42:56.063Z,6.30
2022-11-24T07:45:23.199Z,4.30
2022-11-24T07:47:50.244Z,2.87
2022-11-24T07:50:17.460Z,4.57
2022-11-24T07:52:44.223Z,3.10
2022-11-24T07:55:11.210Z,4.43
2022-11-24T07:57:37.970Z,4.07
2022-11-24T08:00:06.170Z,4.50
2022-11-24T08:02:33.889Z,3.67
2022-11-24T08:05:00.739Z,3.20
2022-11-24T08:07:27.875Z,4.07
2022-11-24T08:09:54.639Z,3.80
2022-11-24T08:12:21.966Z,4.33
2022-11-24T08:14:50.593Z,3.30
2022-11-24T08:17:18.732Z,3.30
2022-11-24T08:19:45.888Z,3.07
2022-11-24T08:22:12.659Z,2.87
2022-11-24T08:24:46.009Z,3.50
2022-11-24T08:27:14.303Z,2.83
2022-11-24T08:29:41.406Z,3.10
2022-11-24T08:32:09.347Z,3.23
2022-11-24T08:34:36.520Z,3.10
2022-11-24T08:37:05.081Z,2.90
2022-11-24T08:39:32.240Z,3.80
2022-11-24T08:41:59.748Z,3.93
2022-11-24T08:44:28.586Z,3.10
2022-11-24T08:46:57.089Z,3.70
2022-11-24T08:49:24.258Z,3.63
2022-11-24T08:51:51.429Z,3.50
2022-11-24T08:54:21.729Z,3.63
2022-11-24T08:56:49.751Z,3.07
2022-11-24T08:59:16.703Z,3.23
2022-11-24T09:01:43.827Z,3.03
2022-11-24T09:04:10.644Z,3.20
2022-11-24T09:06:37.500Z,3.27
2022-11-24T09:09:04.388Z,3.53
2022-11-24T09:11:34.133Z,2.70
2022-11-24T09:14:01.036Z,2.60
2022-11-24T09:16:29.138Z,3.10
2022-11-24T09:19:06.636Z,2.90
2022-11-24T09:21:37.688Z,3.60
2022-11-24T09:24:05.578Z,2.77
2022-11-24T09:26:35.121Z,3.03
2022-11-24T09:29:04.045Z,2.57
2022-11-24T09:31:36.300Z,2.90
2022-11-24T09:34:05.264Z,3.10
2022-11-24T09:36:32.240Z,3.20
2022-11-24T09:38:59.287Z,2.67
2022-11-24T09:42:06.610Z,2.90
2022-11-24T09:44:48.395Z,3.13
2022-11-24T09:47:27.325Z,4.60
2022-11-24T09:50:04.518Z,5.43
2022-11-24T09:52:40.440Z,13.70
2022-11-24T09:55:26.136Z,5.23
2022-11-24T09:58:17.942Z,11.23
2022-11-24T10:00:47.874Z,6.80
2022-11-24T10:03:19.873Z,3.20
2022-11-24T10:05:50.244Z,3.23
2022-11-24T10:08:22.944Z,3.40
2022-11-24T10:11:01.350Z,3.70
2022-11-24T10:13:46.824Z,4.63
2022-11-24T10:16:41.095Z,3.77
2022-11-24T10:19:37.608Z,3.33
2022-11-24T10:22:26.152Z,3.37
2022-11-24T10:25:17.306Z,4.20
2022-11-24T10:27:48.140Z,5.17
2022-11-24T10:30:18.645Z,3.60
2022-11-24T10:32:55.676Z,2.80
2022-11-24T10:35:30.354Z,3.27
2022-11-24T10:38:29.683Z,2.80
2022-11-24T10:41:07.034Z,2.77
2022-11-24T10:43:33.912Z,2.90
2022-11-24T10:46:15.264Z,2.57
2022-11-24T10:49:02.367Z,2.80
2022-11-24T10:51:48.241Z,2.80
2022-11-24T10:54:21.738Z,2.33
2022-11-24T10:56:51.974Z,2.40
2022-11-24T10:59:24.831Z,3.07
2022-11-24T11:01:52.733Z,2.17
2022-11-24T11:04:22.388Z,2.77
2022-11-24T11:06:50.345Z,2.90
2022-11-24T11:09:21.347Z,2.67
2022-11-24T11:11:49.109Z,3.27
2022-11-24T11:14:34.280Z,2.00
2022-11-24T11:17:01.199Z,2.23
2022-11-24T11:19:50.398Z,2.00
2022-11-24T11:22:27.130Z,2.10
2022-11-24T11:25:12.744Z,2.23
2022-11-24T11:27:41.156Z,2.17
2022-11-24T11:36:15.601Z,2.17
2022-11-24T11:38:44.444Z,1.97
2022-11-24T11:41:26.133Z,2.50
2022-11-24T11:44:11.323Z,2.40
2022-11-24T11:46:38.428Z,2.30
2022-11-24T11:49:05.348Z,2.47
2022-11-24T11:52:01.963Z,2.60
2022-11-24T11:54:56.734Z,2.53
2022-11-24T11:57:59.394Z,2.40
2022-11-24T12:00:26.871Z,1.83
2022-11-24T12:03:03.108Z,2.53
2022-11-24T12:05:58.067Z,2.10
2022-11-24T12:09:03.248Z,2.97
2022-11-24T12:11:33.396Z,2.47
2022-11-24T12:14:00.140Z,2.33
2022-11-24T12:16:51.279Z,2.27
2022-11-24T12:19:36.552Z,2.30
2022-11-24T12:22:12.791Z,2.20
2022-11-24T12:24:45.759Z,2.20
2022-11-24T12:27:29.155Z,2.13
2022-11-24T12:30:13.707Z,2.40
2022-11-24T12:33:29.895Z,2.67
2022-11-24T12:36:09.681Z,2.40
2022-11-24T12:38:52.113Z,2.80
2022-11-24T12:41:47.577Z,2.63
2022-11-24T12:44:39.920Z,2.27
2022-11-24T12:47:19.311Z,2.17
2022-11-24T12:49:58.671Z,2.47
2022-11-24T12:53:00.875Z,2.70
2022-11-24T12:55:29.814Z,2.03
2022-11-24T12:58:13.845Z,1.73
2022-11-24T13:01:05.067Z,2.50
2022-11-24T13:03:40.726Z,1.97
2022-11-24T13:06:14.821Z,2.10
2022-11-24T13:08:42.209Z,2.00
2022-11-24T13:11:24.200Z,2.37
2022-11-24T13:14:07.716Z,2.10
2022-11-24T13:16:38.721Z,1.77
2022-11-24T13:19:22.775Z,1.60
2022-11-24T13:22:01.282Z,1.97
2022-11-24T13:24:30.971Z,1.77
2022-11-24T13:27:16.513Z,1.60
2022-11-24T13:29:45.418Z,1.70
2022-11-24T13:32:12.363Z,2.03
2022-11-24T13:34:42.998Z,1.83
2022-11-24T13:37:32.043Z,1.97
2022-11-24T13:40:22.659Z,2.10
2022-11-24T13:43:00.442Z,1.83
2022-11-24T13:45:40.520Z,2.10
2022-11-24T13:48:20.982Z,2.00
2022-11-24T13:50:52.249Z,2.17
2022-11-24T13:53:37.248Z,2.30
2022-11-24T13:56:23.662Z,2.47
2022-11-24T13:58:54.937Z,2.47
2022-11-24T14:01:33.026Z,2.60
2022-11-24T14:04:30.580Z,2.00
2022-11-24T14:07:07.803Z,2.40
2022-11-24T14:09:45.985Z,2.30
2022-11-24T14:12:19.201Z,5.13
2022-11-24T14:14:48.592Z,3.43
2022-11-24T14:17:18.809Z,2.37
2022-11-24T14:19:48.080Z,2.07
2022-11-24T14:22:37.200Z,2.30
2022-11-24T14:25:04.390Z,2.80
2022-11-24T14:27:36.056Z,2.40
2022-11-24T14:30:05.673Z,2.30
2022-11-24T14:32:32.544Z,2.70
2022-11-24T14:34:59.637Z,2.67
2022-11-24T14:37:26.763Z,2.60
2022-11-24T14:39:53.841Z,2.80
2022-11-24T14:42:25.094Z,2.50
2022-11-24T14:45:01.222Z,2.90
2022-11-24T14:47:34.674Z,2.50
2022-11-24T14:50:13.916Z,2.40
2022-11-24T14:52:54.243Z,3.07
2022-11-24T14:55:32.373Z,3.63
2022-11-24T14:58:00.190Z,2.67
2022-11-24T15:00:33.807Z,3.50
2022-11-24T15:03:00.560Z,3.87
2022-11-24T15:05:53.588Z,4.10
2022-11-24T15:08:20.811Z,4.40
2022-11-24T15:10:48.133Z,4.43
2022-11-24T15:13:24.029Z,4.03
2022-11-24T15:16:02.555Z,5.13
2022-11-24T15:18:45.694Z,7.27
2022-11-24T15:21:18.989Z,5.80
2022-11-24T15:24:18.486Z,5.63
2022-11-24T15:26:46.146Z,5.80
2022-11-24T15:29:13.559Z,5.80
2022-11-24T15:31:44.214Z,6.53
2022-11-24T15:34:14.631Z,5.43
2022-11-24T15:36:41.441Z,7.53
2022-11-24T15:39:08.290Z,8.63
2022-11-24T15:41:35.588Z,8.23
2022-11-24T15:44:02.487Z,11.90
2022-11-24T15:46:30.806Z,9.43
2022-11-24T15:48:59.050Z,7.43
2022-11-24T15:51:26.770Z,6.33
2022-11-24T15:54:00.797Z,5.40
2022-11-24T15:56:34.438Z,3.07
2022-11-24T15:59:02.256Z,3.70
2022-11-24T16:01:33.825Z,2.53
2022-11-24T16:04:02.123Z,2.73
2022-11-24T16:06:29.184Z,3.03
2022-11-24T16:08:57.734Z,3.80
2022-11-24T16:11:24.627Z,3.47
2022-11-24T16:13:53.933Z,3.80
2022-11-24T16:16:23.335Z,3.73
2022-11-24T16:18:50.656Z,4.30
2022-11-24T16:21:17.415Z,4.70
2022-11-24T16:23:44.380Z,7.00
2022-11-24T16:26:11.183Z,9.93
2022-11-24T16:28:38.104Z,11.97
2022-11-24T16:31:05.216Z,11.30
2022-11-24T16:33:32.136Z,8.30
2022-11-24T16:35:59.042Z,9.80
2022-11-24T16:38:25.927Z,10.37
2022-11-24T16:40:54.372Z,7.83
2022-11-24T16:43:21.545Z,7.47
2022-11-24T16:46:17.894Z,7.53
2022-11-24T16:48:46.269Z,9.27
2022-11-24T16:51:14.048Z,8.67
2022-11-24T16:53:41.080Z,8.43
2022-11-24T16:56:08.364Z,9.07
2022-11-24T16:58:38.471Z,10.87
2022-11-24T17:01:07.117Z,11.17
2022-11-24T17:03:38.323Z,11.20
2022-11-24T17:06:07.689Z,12.00
2022-11-24T17:08:36.072Z,12.53
2022-11-24T17:11:07.747Z,13.07
2022-11-24T17:13:34.780Z,12.20
2022-11-24T17:16:06.147Z,10.23
2022-11-24T17:18:33.754Z,8.07
2022-11-24T17:21:07.770Z,6.40
2022-11-24T17:23:36.893Z,6.30
2022-11-24T17:26:06.468Z,7.87
2022-11-24T17:28:34.828Z,9.63
2022-11-24T17:31:08.961Z,9.20
2022-11-24T17:33:36.345Z,11.17
2022-11-24T17:36:06.862Z,13.37
2022-11-24T17:38:35.162Z,10.93
2022-11-24T17:41:02.044Z,9.17
2022-11-24T17:43:29.352Z,8.77
2022-11-24T17:45:57.855Z,6.97
2022-11-24T17:48:25.254Z,6.73
2022-11-24T17:51:09.953Z,6.07
2022-11-24T17:53:37.682Z,7.83
2022-11-24T17:56:05.663Z,7.97
2022-11-24T17:58:37.182Z,9.27
2022-11-24T18:01:07.341Z,10.23
2022-11-24T18:03:34.432Z,8.83
2022-11-24T18:06:13.520Z,8.77
2022-11-24T18:08:42.857Z,32.87
2022-11-24T18:11:12.489Z,20.97
2022-11-24T18:13:56.615Z,12.00
2022-11-24T18:16:28.445Z,10.43
2022-11-24T18:19:07.834Z,9.23
2022-11-24T18:21:40.059Z,8.23
2022-11-24T18:24:11.395Z,9.47
2022-11-24T18:26:39.307Z,8.53
2022-11-24T18:29:06.167Z,8.60
2022-11-24T18:31:35.606Z,10.97
2022-11-24T18:34:04.628Z,12.17
2022-11-24T18:36:32.745Z,12.70
2022-11-24T18:39:08.087Z,11.67
2022-11-24T18:41:35.715Z,14.47
2022-11-24T18:44:03.355Z,14.10
2022-11-24T18:46:30.330Z,14.47
2022-11-24T18:48:57.157Z,12.57
2022-11-24T18:51:23.976Z,10.77
2022-11-24T18:53:58.221Z,11.53
2022-11-24T18:56:25.874Z,10.20
2022-11-24T18:58:54.650Z,9.47
2022-11-24T19:01:24.127Z,10.00
2022-11-24T19:03:53.368Z,9.57
2022-11-24T19:06:31.941Z,8.53
2022-11-24T19:09:03.894Z,8.93
2022-11-24T19:11:33.936Z,9.53
2022-11-24T19:14:02.293Z,8.30
2022-11-24T19:16:29.119Z,9.17
2022-11-24T19:19:02.728Z,8.80
2022-11-24T19:21:35.373Z,9.03
2022-11-24T19:24:05.246Z,10.90
2022-11-24T19:26:34.824Z,8.63
2022-11-24T19:29:02.076Z,7.33
2022-11-24T19:31:29.005Z,8.00
2022-11-24T19:34:00.091Z,7.40
2022-11-24T19:36:27.395Z,8.27
2022-11-24T19:38:56.278Z,8.03
2022-11-24T19:41:26.018Z,9.27
2022-11-24T19:43:56.635Z,8.97
2022-11-24T19:46:27.539Z,8.13
2022-11-24T19:48:57.313Z,8.60
2022-11-24T19:51:32.359Z,8.83
2022-11-24T19:54:00.251Z,10.10
2022-11-24T19:56:29.541Z,12.50
2022-11-24T19:58:56.623Z,11.23
2022-11-24T20:01:27.835Z,11.90
2022-11-24T20:04:22.652Z,12.33
2022-11-24T20:06:49.549Z,12.07
2022-11-24T20:09:21.398Z,11.27
2022-11-24T20:11:49.148Z,10.90
2022-11-24T20:14:18.336Z,12.13
2022-11-24T20:16:47.090Z,14.03
2022-11-24T20:19:16.248Z,13.07
2022-11-24T20:21:46.384Z,11.80
2022-11-24T20:24:18.869Z,11.77
2022-11-24T20:26:48.685Z,11.93
2022-11-24T20:29:16.373Z,11.53
2022-11-24T20:31:48.727Z,14.47
2022-11-24T20:34:16.128Z,16.80
2022-11-24T20:36:45.253Z,15.33
2022-11-24T20:39:16.065Z,13.70
2022-11-24T20:41:42.970Z,11.13
2022-11-24T20:44:13.795Z,11.73
2022-11-24T20:46:42.435Z,10.73
2022-11-24T20:49:12.260Z,9.27
2022-11-24T20:51:43.973Z,11.03
2022-11-24T20:54:12.959Z,11.67
2022-11-24T20:56:41.727Z,10.53
2022-11-24T20:59:11.392Z,10.47
2022-11-24T21:01:42.501Z,9.60
2022-11-24T21:04:12.545Z,9.80
2022-11-24T21:06:39.713Z,12.97
2022-11-24T21:09:08.199Z,11.33
2022-11-24T21:11:35.896Z,10.57
2022-11-24T21:14:03.105Z,10.77
2022-11-24T21:16:32.827Z,10.27
2022-11-24T21:19:03.145Z,11.00
2022-11-24T21:21:34.610Z,10.07
2022-11-24T21:24:03.634Z,9.57
2022-11-24T21:26:30.434Z,10.70
2022-11-24T21:28:57.678Z,11.63
2022-11-24T21:31:24.680Z,11.00
2022-11-24T21:33:53.270Z,10.27
2022-11-24T21:36:22.932Z,9.40
2022-11-24T21:38:54.755Z,10.07
2022-11-24T21:41:23.136Z,10.60
2022-11-24T21:43:50.278Z,10.27
2022-11-24T21:46:17.612Z,12.87
2022-11-24T21:48:44.916Z,12.20
2022-11-24T21:51:16.591Z,12.40
2022-11-24T21:53:44.646Z,13.10
2022-11-24T21:56:14.975Z,12.03
2022-11-24T21:58:50.071Z,12.60
2022-11-24T22:01:18.793Z,10.50
2022-11-24T22:03:46.143Z,11.87
2022-11-24T22:06:13.230Z,11.30
2022-11-24T22:08:40.014Z,11.30
2022-11-24T22:11:19.856Z,11.23
2022-11-24T22:13:47.307Z,10.17
2022-11-24T22:16:22.130Z,9.70
2022-11-24T22:18:49.626Z,9.17
2022-11-24T22:21:25.600Z,9.27
2022-11-24T22:23:52.866Z,9.57
2022-11-24T22:26:22.142Z,8.27
2022-11-24T22:28:49.748Z,8.67
2022-11-24T22:31:22.916Z,8.53
2022-11-24T22:33:50.754Z,9.53
2022-11-24T22:36:20.685Z,8.43
2022-11-24T22:38:52.366Z,9.40
2022-11-24T22:41:19.438Z,8.43
2022-11-24T22:43:46.996Z,9.50
2022-11-24T22:46:19.353Z,9.60
2022-11-24T22:48:47.439Z,9.03
2022-11-24T22:51:20.557Z,10.17
2022-11-24T22:53:49.531Z,9.13
2022-11-24T22:56:17.023Z,9.50
2022-11-24T22:58:44.216Z,9.10
2022-11-24T23:01:18.022Z,9.07
2022-11-24T23:03:45.090Z,9.27
2022-11-24T23:06:18.443Z,9.03
2022-11-24T23:08:45.270Z,9.20
2022-11-24T23:11:32.713Z,9.77
2022-11-24T23:14:03.986Z,10.43
2022-11-24T23:16:30.867Z,10.83
2022-11-24T23:18:58.984Z,9.67
2022-11-24T23:21:28.616Z,10.97
2022-11-24T23:23:55.732Z,10.90
2022-11-24T23:26:26.018Z,11.97
2022-11-24T23:28:52.728Z,11.17
2022-11-24T23:31:22.140Z,9.67
2022-11-24T23:33:49.032Z,9.33
2022-11-24T23:36:18.355Z,8.50
2022-11-24T23:38:45.458Z,9.40
2022-11-24T23:41:24.072Z,9.20
2022-11-24T23:43:51.043Z,10.83
2022-11-24T23:46:20.604Z,13.30
2022-11-24T23:48:47.960Z,13.00
2022-11-24T23:51:20.382Z,13.67
2022-11-24T23:53:47.962Z,16.43
2022-11-24T23:56:16.998Z,12.20
2022-11-24T23:58:44.458Z,10.90
